sensor_id;sensor_type;location;lat;lon;timestamp;P1;durP1;ratioP1;P2;durP2;ratioP2
47599;SDS011;33323;52.124;6.018;2023-03-14T00:00:12;6.43;;;2.33;;
47599;SDS011;33323;52.124;6.018;2023-03-14T00:02:40;8.70;;;2.80;;
47599;SDS011;33323;52.124;6.018;2023-03-14T00:05:08;7.20;;;2.28;;
47599;SDS011;33323;52.124;6.018;2023-03-14T00:07:36;9.10;;;1.95;;
47599;SDS011;33323;52.124;6.018;2023-03-14T00:10:06;5.28;;;1.80;;
47599;SDS011;33323;52.124;6.018;2023-03-14T00:12:38;6.28;;;2.03;;
47599;SDS011;33323;52.124;6.018;2023-03-14T00:15:10;9.90;;;2.47;;
47599;SDS011;33323;52.124;6.018;2023-03-14T00:17:38;8.70;;;2.40;;
47599;SDS011;33323;52.124;6.018;2023-03-14T00:20:06;5.55;;;2.92;;
47599;SDS011;33323;52.124;6.018;2023-03-14T00:22:37;6.57;;;2.38;;
47599;SDS011;33323;52.124;6.018;2023-03-14T00:25:06;12.07;;;3.20;;
47599;SDS011;33323;52.124;6.018;2023-03-14T00:27:35;9.95;;;2.15;;
47599;SDS011;33323;52.124;6.018;2023-03-14T00:30:04;8.43;;;2.47;;
47599;SDS011;33323;52.124;6.018;2023-03-14T00:32:34;7.13;;;2.10;;
47599;SDS011;33323;52.124;6.018;2023-03-14T00:35:01;9.60;;;2.35;;
47599;SDS011;33323;52.124;6.018;2023-03-14T00:37:29;6.32;;;2.20;;
47599;SDS011;33323;52.124;6.018;2023-03-14T00:39:56;4.70;;;2.05;;
47599;SDS011;33323;52.124;6.018;2023-03-14T00:42:24;4.93;;;1.45;;
47599;SDS011;33323;52.124;6.018;2023-03-14T00:44:51;5.65;;;1.42;;
47599;SDS011;33323;52.124;6.018;2023-03-14T00:47:18;4.63;;;1.80;;
47599;SDS011;33323;52.124;6.018;2023-03-14T00:49:46;7.35;;;2.17;;
47599;SDS011;33323;52.124;6.018;2023-03-14T00:52:13;3.38;;;1.45;;
47599;SDS011;33323;52.124;6.018;2023-03-14T00:54:40;8.43;;;1.85;;
47599;SDS011;33323;52.124;6.018;2023-03-14T00:57:07;6.10;;;3.05;;
47599;SDS011;33323;52.124;6.018;2023-03-14T00:59:34;6.78;;;1.67;;
47599;SDS011;33323;52.124;6.018;2023-03-14T01:02:01;9.50;;;3.15;;
47599;SDS011;33323;52.124;6.018;2023-03-14T01:04:28;6.13;;;1.58;;
47599;SDS011;33323;52.124;6.018;2023-03-14T01:06:56;6.93;;;2.15;;
47599;SDS011;33323;52.124;6.018;2023-03-14T01:09:23;5.55;;;1.90;;
47599;SDS011;33323;52.124;6.018;2023-03-14T01:11:50;8.50;;;1.90;;
47599;SDS011;33323;52.124;6.018;2023-03-14T01:14:17;13.43;;;3.50;;
47599;SDS011;33323;52.124;6.018;2023-03-14T01:16:44;10.38;;;2.55;;
47599;SDS011;33323;52.124;6.018;2023-03-14T01:19:11;8.20;;;1.98;;
47599;SDS011;33323;52.124;6.018;2023-03-14T01:21:38;7.15;;;1.65;;
47599;SDS011;33323;52.124;6.018;2023-03-14T01:24:05;5.38;;;1.95;;
47599;SDS011;33323;52.124;6.018;2023-03-14T01:26:33;8.55;;;1.98;;
47599;SDS011;33323;52.124;6.018;2023-03-14T01:29:03;8.75;;;2.47;;
47599;SDS011;33323;52.124;6.018;2023-03-14T01:31:33;7.28;;;1.10;;
47599;SDS011;33323;52.124;6.018;2023-03-14T01:34:00;5.55;;;1.20;;
47599;SDS011;33323;52.124;6.018;2023-03-14T01:36:27;6.70;;;1.20;;
47599;SDS011;33323;52.124;6.018;2023-03-14T01:38:58;5.18;;;1.48;;
47599;SDS011;33323;52.124;6.018;2023-03-14T01:41:25;6.47;;;0.98;;
47599;SDS011;33323;52.124;6.018;2023-03-14T01:43:55;8.75;;;1.77;;
47599;SDS011;33323;52.124;6.018;2023-03-14T01:49:00;8.18;;;1.40;;
47599;SDS011;33323;52.124;6.018;2023-03-14T01:51:40;7.67;;;1.60;;
47599;SDS011;33323;52.124;6.018;2023-03-14T01:54:32;6.45;;;1.15;;
47599;SDS011;33323;52.124;6.018;2023-03-14T01:57:09;7.05;;;1.80;;
47599;SDS011;33323;52.124;6.018;2023-03-14T01:59:43;8.43;;;1.55;;
47599;SDS011;33323;52.124;6.018;2023-03-14T02:02:19;4.55;;;2.17;;
47599;SDS011;33323;52.124;6.018;2023-03-14T02:04:47;9.35;;;1.67;;
47599;SDS011;33323;52.124;6.018;2023-03-14T02:07:24;5.82;;;2.10;;
47599;SDS011;33323;52.124;6.018;2023-03-14T02:10:14;10.05;;;2.17;;
47599;SDS011;33323;52.124;6.018;2023-03-14T02:12:45;7.13;;;3.03;;
47599;SDS011;33323;52.124;6.018;2023-03-14T02:15:40;10.00;;;2.38;;
47599;SDS011;33323;52.124;6.018;2023-03-14T02:18:31;6.28;;;2.92;;
47599;SDS011;33323;52.124;6.018;2023-03-14T02:29:29;11.20;;;2.35;;
47599;SDS011;33323;52.124;6.018;2023-03-14T02:32:01;7.18;;;2.63;;
47599;SDS011;33323;52.124;6.018;2023-03-14T02:34:28;5.25;;;2.13;;
47599;SDS011;33323;52.124;6.018;2023-03-14T02:36:57;6.75;;;2.75;;
47599;SDS011;33323;52.124;6.018;2023-03-14T02:39:37;5.97;;;2.75;;
47599;SDS011;33323;52.124;6.018;2023-03-14T02:42:06;8.50;;;2.70;;
47599;SDS011;33323;52.124;6.018;2023-03-14T02:44:33;9.77;;;2.80;;
47599;SDS011;33323;52.124;6.018;2023-03-14T02:47:03;9.43;;;3.70;;
47599;SDS011;33323;52.124;6.018;2023-03-14T02:49:31;6.28;;;2.53;;
47599;SDS011;33323;52.124;6.018;2023-03-14T02:52:00;6.40;;;2.65;;
47599;SDS011;33323;52.124;6.018;2023-03-14T02:54:27;5.72;;;2.50;;
47599;SDS011;33323;52.124;6.018;2023-03-14T02:56:54;7.90;;;2.70;;
47599;SDS011;33323;52.124;6.018;2023-03-14T02:59:21;6.78;;;2.70;;
47599;SDS011;33323;52.124;6.018;2023-03-14T03:01:52;6.40;;;2.35;;
47599;SDS011;33323;52.124;6.018;2023-03-14T03:04:19;5.22;;;2.10;;
47599;SDS011;33323;52.124;6.018;2023-03-14T03:06:46;9.02;;;2.90;;
47599;SDS011;33323;52.124;6.018;2023-03-14T03:09:15;10.15;;;3.30;;
47599;SDS011;33323;52.124;6.018;2023-03-14T03:11:42;4.88;;;1.92;;
47599;SDS011;33323;52.124;6.018;2023-03-14T03:14:15;7.97;;;2.92;;
47599;SDS011;33323;52.124;6.018;2023-03-14T03:16:42;8.90;;;2.25;;
47599;SDS011;33323;52.124;6.018;2023-03-14T03:19:09;22.67;;;3.50;;
47599;SDS011;33323;52.124;6.018;2023-03-14T03:21:36;4.75;;;2.03;;
47599;SDS011;33323;52.124;6.018;2023-03-14T03:24:03;10.32;;;2.10;;
47599;SDS011;33323;52.124;6.018;2023-03-14T03:26:33;9.88;;;2.22;;
47599;SDS011;33323;52.124;6.018;2023-03-14T03:29:06;7.07;;;2.08;;
47599;SDS011;33323;52.124;6.018;2023-03-14T03:31:33;3.88;;;1.52;;
47599;SDS011;33323;52.124;6.018;2023-03-14T03:34:03;6.28;;;1.52;;
47599;SDS011;33323;52.124;6.018;2023-03-14T03:36:30;7.53;;;1.40;;
47599;SDS011;33323;52.124;6.018;2023-03-14T03:38:58;7.53;;;2.42;;
47599;SDS011;33323;52.124;6.018;2023-03-14T03:41:25;8.95;;;1.58;;
47599;SDS011;33323;52.124;6.018;2023-03-14T03:43:52;16.30;;;2.67;;
47599;SDS011;33323;52.124;6.018;2023-03-14T03:46:20;6.75;;;1.90;;
47599;SDS011;33323;52.124;6.018;2023-03-14T03:48:53;8.23;;;1.63;;
47599;SDS011;33323;52.124;6.018;2023-03-14T03:51:26;8.95;;;2.50;;
47599;SDS011;33323;52.124;6.018;2023-03-14T03:53:55;11.55;;;2.40;;
47599;SDS011;33323;52.124;6.018;2023-03-14T03:56:28;10.73;;;2.33;;
47599;SDS011;33323;52.124;6.018;2023-03-14T03:58:55;8.85;;;2.28;;
47599;SDS011;33323;52.124;6.018;2023-03-14T04:01:23;10.30;;;2.20;;
47599;SDS011;33323;52.124;6.018;2023-03-14T04:03:53;8.25;;;1.92;;
47599;SDS011;33323;52.124;6.018;2023-03-14T04:06:21;4.35;;;1.60;;
47599;SDS011;33323;52.124;6.018;2023-03-14T04:08:50;5.68;;;1.88;;
47599;SDS011;33323;52.124;6.018;2023-03-14T04:11:29;11.30;;;2.45;;
47599;SDS011;33323;52.124;6.018;2023-03-14T04:14:23;11.05;;;2.03;;
47599;SDS011;33323;52.124;6.018;2023-03-14T04:17:11;8.73;;;1.77;;
47599;SDS011;33323;52.124;6.018;2023-03-14T04:19:38;14.10;;;2.25;;
47599;SDS011;33323;52.124;6.018;2023-03-14T04:22:06;12.85;;;2.95;;
47599;SDS011;33323;52.124;6.018;2023-03-14T04:24:42;12.25;;;2.00;;
47599;SDS011;33323;52.124;6.018;2023-03-14T04:27:09;9.38;;;2.00;;
47599;SDS011;33323;52.124;6.018;2023-03-14T04:29:36;11.65;;;4.10;;
47599;SDS011;33323;52.124;6.018;2023-03-14T04:32:03;20.15;;;6.35;;
47599;SDS011;33323;52.124;6.018;2023-03-14T04:34:31;11.88;;;2.47;;
47599;SDS011;33323;52.124;6.018;2023-03-14T04:36:58;11.00;;;2.72;;
47599;SDS011;33323;52.124;6.018;2023-03-14T04:39:33;19.70;;;2.90;;
47599;SDS011;33323;52.124;6.018;2023-03-14T04:42:22;9.02;;;2.47;;
47599;SDS011;33323;52.124;6.018;2023-03-14T04:44:49;14.80;;;2.83;;
47599;SDS011;33323;52.124;6.018;2023-03-14T04:47:20;8.50;;;2.30;;
47599;SDS011;33323;52.124;6.018;2023-03-14T04:49:48;7.88;;;3.70;;
47599;SDS011;33323;52.124;6.018;2023-03-14T04:52:15;10.98;;;3.67;;
47599;SDS011;33323;52.124;6.018;2023-03-14T04:54:43;12.10;;;3.10;;
47599;SDS011;33323;52.124;6.018;2023-03-14T04:57:10;18.55;;;3.58;;
47599;SDS011;33323;52.124;6.018;2023-03-14T04:59:38;13.20;;;2.15;;
47599;SDS011;33323;52.124;6.018;2023-03-14T05:02:34;12.57;;;2.22;;
47599;SDS011;33323;52.124;6.018;2023-03-14T05:05:09;9.02;;;1.70;;
47599;SDS011;33323;52.124;6.018;2023-03-14T05:07:56;9.30;;;2.20;;
47599;SDS011;33323;52.124;6.018;2023-03-14T05:10:56;14.25;;;1.90;;
47599;SDS011;33323;52.124;6.018;2023-03-14T05:13:42;7.10;;;2.42;;
47599;SDS011;33323;52.124;6.018;2023-03-14T05:16:42;8.50;;;2.25;;
47599;SDS011;33323;52.124;6.018;2023-03-14T05:19:10;5.55;;;1.63;;
47599;SDS011;33323;52.124;6.018;2023-03-14T05:21:56;12.30;;;2.67;;
47599;SDS011;33323;52.124;6.018;2023-03-14T05:24:35;5.70;;;1.92;;
47599;SDS011;33323;52.124;6.018;2023-03-14T05:27:35;7.90;;;1.63;;
47599;SDS011;33323;52.124;6.018;2023-03-14T05:30:29;13.45;;;2.60;;
47599;SDS011;33323;52.124;6.018;2023-03-14T05:33:17;9.05;;;1.70;;
47599;SDS011;33323;52.124;6.018;2023-03-14T05:36:02;7.15;;;1.65;;
47599;SDS011;33323;52.124;6.018;2023-03-14T05:38:50;15.70;;;2.45;;
47599;SDS011;33323;52.124;6.018;2023-03-14T05:41:35;10.02;;;1.52;;
47599;SDS011;33323;52.124;6.018;2023-03-14T05:44:15;4.18;;;1.40;;
47599;SDS011;33323;52.124;6.018;2023-03-14T05:46:57;6.15;;;1.10;;
47599;SDS011;33323;52.124;6.018;2023-03-14T05:49:49;6.90;;;1.10;;
47599;SDS011;33323;52.124;6.018;2023-03-14T05:52:36;9.73;;;1.75;;
47599;SDS011;33323;52.124;6.018;2023-03-14T05:55:06;4.28;;;1.10;;
47599;SDS011;33323;52.124;6.018;2023-03-14T05:58:04;3.60;;;1.15;;
47599;SDS011;33323;52.124;6.018;2023-03-14T06:00:50;12.13;;;2.58;;
47599;SDS011;33323;52.124;6.018;2023-03-14T06:03:35;6.22;;;1.10;;
47599;SDS011;33323;52.124;6.018;2023-03-14T06:06:02;4.88;;;1.70;;
47599;SDS011;33323;52.124;6.018;2023-03-14T06:08:30;8.20;;;2.10;;
47599;SDS011;33323;52.124;6.018;2023-03-14T06:10:57;6.13;;;1.20;;
47599;SDS011;33323;52.124;6.018;2023-03-14T06:13:29;7.70;;;1.38;;
47599;SDS011;33323;52.124;6.018;2023-03-14T06:15:56;7.35;;;1.00;;
47599;SDS011;33323;52.124;6.018;2023-03-14T06:18:23;3.50;;;1.25;;
47599;SDS011;33323;52.124;6.018;2023-03-14T06:20:54;7.10;;;1.52;;
47599;SDS011;33323;52.124;6.018;2023-03-14T06:23:24;4.47;;;1.55;;
47599;SDS011;33323;52.124;6.018;2023-03-14T06:25:53;7.63;;;2.25;;
47599;SDS011;33323;52.124;6.018;2023-03-14T06:28:22;4.03;;;1.30;;
47599;SDS011;33323;52.124;6.018;2023-03-14T06:30:52;8.40;;;2.20;;
47599;SDS011;33323;52.124;6.018;2023-03-14T06:33:19;3.45;;;1.50;;
47599;SDS011;33323;52.124;6.018;2023-03-14T06:35:46;9.38;;;2.00;;
47599;SDS011;33323;52.124;6.018;2023-03-14T06:38:14;4.68;;;1.48;;
47599;SDS011;33323;52.124;6.018;2023-03-14T06:40:41;6.10;;;2.03;;
47599;SDS011;33323;52.124;6.018;2023-03-14T06:43:16;5.93;;;1.77;;
47599;SDS011;33323;52.124;6.018;2023-03-14T06:45:45;7.43;;;2.47;;
47599;SDS011;33323;52.124;6.018;2023-03-14T06:48:12;9.95;;;1.92;;
47599;SDS011;33323;52.124;6.018;2023-03-14T06:50:47;6.32;;;2.10;;
47599;SDS011;33323;52.124;6.018;2023-03-14T06:53:15;8.25;;;2.60;;
47599;SDS011;33323;52.124;6.018;2023-03-14T06:55:43;6.70;;;2.50;;
47599;SDS011;33323;52.124;6.018;2023-03-14T06:58:13;6.93;;;2.33;;
47599;SDS011;33323;52.124;6.018;2023-03-14T07:00:43;7.18;;;3.90;;
47599;SDS011;33323;52.124;6.018;2023-03-14T07:03:14;7.78;;;2.65;;
47599;SDS011;33323;52.124;6.018;2023-03-14T07:05:46;6.85;;;2.60;;
47599;SDS011;33323;52.124;6.018;2023-03-14T07:08:14;6.35;;;2.95;;
47599;SDS011;33323;52.124;6.018;2023-03-14T07:10:41;6.72;;;3.47;;
47599;SDS011;33323;52.124;6.018;2023-03-14T07:13:09;6.82;;;3.30;;
47599;SDS011;33323;52.124;6.018;2023-03-14T07:15:47;5.07;;;2.75;;
47599;SDS011;33323;52.124;6.018;2023-03-14T07:18:14;8.20;;;2.92;;
47599;SDS011;33323;52.124;6.018;2023-03-14T07:20:41;5.50;;;2.88;;
47599;SDS011;33323;52.124;6.018;2023-03-14T07:23:13;6.70;;;3.50;;
47599;SDS011;33323;52.124;6.018;2023-03-14T07:25:48;9.02;;;3.17;;
47599;SDS011;33323;52.124;6.018;2023-03-14T07:28:19;6.65;;;2.72;;
47599;SDS011;33323;52.124;6.018;2023-03-14T07:30:49;7.55;;;2.97;;
47599;SDS011;33323;52.124;6.018;2023-03-14T07:33:24;3.83;;;2.30;;
47599;SDS011;33323;52.124;6.018;2023-03-14T07:35:51;3.33;;;1.70;;
47599;SDS011;33323;52.124;6.018;2023-03-14T07:38:19;5.00;;;1.92;;
47599;SDS011;33323;52.124;6.018;2023-03-14T07:41:11;4.03;;;0.90;;
47599;SDS011;33323;52.124;6.018;2023-03-14T07:44:03;1.73;;;0.80;;
47599;SDS011;33323;52.124;6.018;2023-03-14T07:46:30;0.63;;;0.40;;
47599;SDS011;33323;52.124;6.018;2023-03-14T07:48:57;0.95;;;0.30;;
47599;SDS011;33323;52.124;6.018;2023-03-14T07:51:24;0.40;;;0.40;;
47599;SDS011;33323;52.124;6.018;2023-03-14T07:53:51;1.05;;;0.32;;
47599;SDS011;33323;52.124;6.018;2023-03-14T07:56:18;3.28;;;0.85;;
47599;SDS011;33323;52.124;6.018;2023-03-14T07:58:45;2.00;;;0.30;;
47599;SDS011;33323;52.124;6.018;2023-03-14T08:01:12;0.95;;;0.40;;
47599;SDS011;33323;52.124;6.018;2023-03-14T08:03:40;3.63;;;0.68;;
47599;SDS011;33323;52.124;6.018;2023-03-14T08:06:07;0.98;;;0.30;;
47599;SDS011;33323;52.124;6.018;2023-03-14T08:08:34;1.73;;;0.50;;
47599;SDS011;33323;52.124;6.018;2023-03-14T08:11:02;0.63;;;0.30;;
47599;SDS011;33323;52.124;6.018;2023-03-14T08:13:31;2.97;;;0.52;;
47599;SDS011;33323;52.124;6.018;2023-03-14T08:15:58;2.05;;;0.20;;
47599;SDS011;33323;52.124;6.018;2023-03-14T08:18:25;3.00;;;0.30;;
47599;SDS011;33323;52.124;6.018;2023-03-14T08:20:53;0.90;;;0.47;;
47599;SDS011;33323;52.124;6.018;2023-03-14T08:23:20;1.52;;;0.38;;
47599;SDS011;33323;52.124;6.018;2023-03-14T08:25:50;2.35;;;1.40;;
47599;SDS011;33323;52.124;6.018;2023-03-14T08:28:18;1.95;;;0.50;;
47599;SDS011;33323;52.124;6.018;2023-03-14T08:30:45;1.95;;;0.32;;
47599;SDS011;33323;52.124;6.018;2023-03-14T08:33:13;4.22;;;0.50;;
47599;SDS011;33323;52.124;6.018;2023-03-14T08:35:40;5.15;;;0.60;;
47599;SDS011;33323;52.124;6.018;2023-03-14T08:38:08;5.07;;;0.60;;
47599;SDS011;33323;52.124;6.018;2023-03-14T08:40:35;1.77;;;0.63;;
47599;SDS011;33323;52.124;6.018;2023-03-14T08:43:02;2.55;;;0.77;;
47599;SDS011;33323;52.124;6.018;2023-03-14T08:45:29;2.20;;;0.40;;
47599;SDS011;33323;52.124;6.018;2023-03-14T08:47:57;4.20;;;0.88;;
47599;SDS011;33323;52.124;6.018;2023-03-14T08:50:24;4.22;;;1.83;;
47599;SDS011;33323;52.124;6.018;2023-03-14T08:52:52;4.60;;;0.90;;
47599;SDS011;33323;52.124;6.018;2023-03-14T08:55:19;7.65;;;0.60;;
47599;SDS011;33323;52.124;6.018;2023-03-14T08:57:46;2.75;;;0.50;;
47599;SDS011;33323;52.124;6.018;2023-03-14T09:00:13;3.45;;;0.85;;
47599;SDS011;33323;52.124;6.018;2023-03-14T09:02:41;9.00;;;1.63;;
47599;SDS011;33323;52.124;6.018;2023-03-14T09:05:09;1.05;;;0.40;;
47599;SDS011;33323;52.124;6.018;2023-03-14T09:07:37;2.38;;;0.45;;
47599;SDS011;33323;52.124;6.018;2023-03-14T09:10:06;3.38;;;0.40;;
47599;SDS011;33323;52.124;6.018;2023-03-14T09:12:35;1.88;;;0.50;;
47599;SDS011;33323;52.124;6.018;2023-03-14T09:15:02;4.57;;;0.82;;
47599;SDS011;33323;52.124;6.018;2023-03-14T09:17:30;1.30;;;0.40;;
47599;SDS011;33323;52.124;6.018;2023-03-14T09:19:57;0.63;;;0.30;;
47599;SDS011;33323;52.124;6.018;2023-03-14T09:22:26;4.25;;;1.45;;
47599;SDS011;33323;52.124;6.018;2023-03-14T09:24:53;2.08;;;0.30;;
47599;SDS011;33323;52.124;6.018;2023-03-14T09:27:20;4.13;;;0.50;;
47599;SDS011;33323;52.124;6.018;2023-03-14T09:29:47;3.10;;;0.40;;
47599;SDS011;33323;52.124;6.018;2023-03-14T09:32:14;2.00;;;0.50;;
47599;SDS011;33323;52.124;6.018;2023-03-14T09:34:41;1.20;;;0.30;;
47599;SDS011;33323;52.124;6.018;2023-03-14T09:37:08;0.65;;;0.40;;
47599;SDS011;33323;52.124;6.018;2023-03-14T09:39:35;6.80;;;0.47;;
47599;SDS011;33323;52.124;6.018;2023-03-14T09:42:03;3.05;;;0.32;;
47599;SDS011;33323;52.124;6.018;2023-03-14T09:44:37;2.17;;;0.40;;
47599;SDS011;33323;52.124;6.018;2023-03-14T09:47:18;4.72;;;0.65;;
47599;SDS011;33323;52.124;6.018;2023-03-14T09:49:46;0.95;;;0.60;;
47599;SDS011;33323;52.124;6.018;2023-03-14T09:52:24;3.17;;;0.40;;
47599;SDS011;33323;52.124;6.018;2023-03-14T09:55:05;1.90;;;0.57;;
47599;SDS011;33323;52.124;6.018;2023-03-14T09:57:44;1.05;;;0.47;;
47599;SDS011;33323;52.124;6.018;2023-03-14T10:00:18;2.95;;;0.75;;
47599;SDS011;33323;52.124;6.018;2023-03-14T10:02:52;3.55;;;0.47;;
47599;SDS011;33323;52.124;6.018;2023-03-14T10:05:41;7.30;;;0.80;;
47599;SDS011;33323;52.124;6.018;2023-03-14T10:08:12;4.40;;;0.50;;
47599;SDS011;33323;52.124;6.018;2023-03-14T10:10:40;3.80;;;0.60;;
47599;SDS011;33323;52.124;6.018;2023-03-14T10:13:15;4.05;;;0.80;;
47599;SDS011;33323;52.124;6.018;2023-03-14T10:15:58;4.60;;;0.65;;
47599;SDS011;33323;52.124;6.018;2023-03-14T10:18:34;9.60;;;0.82;;
47599;SDS011;33323;52.124;6.018;2023-03-14T10:21:20;9.55;;;2.10;;
47599;SDS011;33323;52.124;6.018;2023-03-14T10:24:21;8.48;;;1.05;;
47599;SDS011;33323;52.124;6.018;2023-03-14T10:26:54;9.73;;;1.02;;
47599;SDS011;33323;52.124;6.018;2023-03-14T10:29:31;13.20;;;2.25;;
47599;SDS011;33323;52.124;6.018;2023-03-14T10:32:04;10.60;;;1.17;;
47599;SDS011;33323;52.124;6.018;2023-03-14T10:34:35;10.25;;;1.55;;
47599;SDS011;33323;52.124;6.018;2023-03-14T10:37:06;12.77;;;1.83;;
47599;SDS011;33323;52.124;6.018;2023-03-14T10:42:14;13.40;;;1.50;;
47599;SDS011;33323;52.124;6.018;2023-03-14T10:44:48;10.75;;;1.88;;
47599;SDS011;33323;52.124;6.018;2023-03-14T10:47:23;11.07;;;1.00;;
47599;SDS011;33323;52.124;6.018;2023-03-14T10:49:55;9.43;;;1.83;;
47599;SDS011;33323;52.124;6.018;2023-03-14T10:52:24;10.95;;;1.83;;
47599;SDS011;33323;52.124;6.018;2023-03-14T10:55:14;17.45;;;2.88;;
47599;SDS011;33323;52.124;6.018;2023-03-14T10:57:42;7.10;;;1.85;;
47599;SDS011;33323;52.124;6.018;2023-03-14T11:08:07;14.20;;;2.33;;
47599;SDS011;33323;52.124;6.018;2023-03-14T11:10:42;21.37;;;2.93;;
47599;SDS011;33323;52.124;6.018;2023-03-14T11:19:14;12.37;;;1.67;;
47599;SDS011;33323;52.124;6.018;2023-03-14T11:22:21;25.75;;;2.78;;
47599;SDS011;33323;52.124;6.018;2023-03-14T11:25:04;9.07;;;1.95;;
47599;SDS011;33323;52.124;6.018;2023-03-14T11:28:08;14.13;;;2.15;;
47599;SDS011;33323;52.124;6.018;2023-03-14T11:33:18;9.68;;;1.98;;
47599;SDS011;33323;52.124;6.018;2023-03-14T11:36:08;19.17;;;3.35;;
47599;SDS011;33323;52.124;6.018;2023-03-14T11:41:29;11.88;;;2.55;;
47599;SDS011;33323;52.124;6.018;2023-03-14T11:44:03;12.25;;;2.70;;
47599;SDS011;33323;52.124;6.018;2023-03-14T11:46:41;12.55;;;3.45;;
47599;SDS011;33323;52.124;6.018;2023-03-14T11:49:58;8.73;;;1.95;;
47599;SDS011;33323;52.124;6.018;2023-03-14T11:52:11;16.70;;;2.33;;
47599;SDS011;33323;52.124;6.018;2023-03-14T11:57:44;8.57;;;1.75;;
47599;SDS011;33323;52.124;6.018;2023-03-14T12:00:17;11.25;;;2.30;;
47599;SDS011;33323;52.124;6.018;2023-03-14T12:05:50;7.85;;;1.63;;
47599;SDS011;33323;52.124;6.018;2023-03-14T12:08:53;6.40;;;1.75;;
47599;SDS011;33323;52.124;6.018;2023-03-14T12:14:29;7.78;;;1.85;;
47599;SDS011;33323;52.124;6.018;2023-03-14T12:17:06;10.27;;;2.28;;
47599;SDS011;33323;52.124;6.018;2023-03-14T12:25:21;8.35;;;1.58;;
47599;SDS011;33323;52.124;6.018;2023-03-14T12:35:44;4.15;;;1.05;;
47599;SDS011;33323;52.124;6.018;2023-03-14T12:43:40;13.88;;;2.35;;
47599;SDS011;33323;52.124;6.018;2023-03-14T12:51:17;8.38;;;0.98;;
47599;SDS011;33323;52.124;6.018;2023-03-14T12:56:59;8.00;;;1.35;;
47599;SDS011;33323;52.124;6.018;2023-03-14T12:59:47;4.25;;;1.13;;
47599;SDS011;33323;52.124;6.018;2023-03-14T13:02:25;8.43;;;2.28;;
47599;SDS011;33323;52.124;6.018;2023-03-14T13:05:11;4.60;;;1.50;;
47599;SDS011;33323;52.124;6.018;2023-03-14T13:13:11;11.27;;;0.75;;
47599;SDS011;33323;52.124;6.018;2023-03-14T13:15:53;3.17;;;0.75;;
47599;SDS011;33323;52.124;6.018;2023-03-14T13:21:11;4.30;;;0.80;;
47599;SDS011;33323;52.124;6.018;2023-03-14T13:26:36;6.80;;;1.05;;
47599;SDS011;33323;52.124;6.018;2023-03-14T13:29:09;3.72;;;1.08;;
47599;SDS011;33323;52.124;6.018;2023-03-14T13:31:46;4.97;;;0.60;;
47599;SDS011;33323;52.124;6.018;2023-03-14T13:34:16;10.20;;;1.35;;
47599;SDS011;33323;52.124;6.018;2023-03-14T13:36:44;4.13;;;0.82;;
47599;SDS011;33323;52.124;6.018;2023-03-14T13:39:17;6.05;;;0.68;;
47599;SDS011;33323;52.124;6.018;2023-03-14T13:41:51;5.20;;;0.85;;
47599;SDS011;33323;52.124;6.018;2023-03-14T13:44:33;5.65;;;1.00;;
47599;SDS011;33323;52.124;6.018;2023-03-14T13:47:04;8.75;;;1.20;;
47599;SDS011;33323;52.124;6.018;2023-03-14T13:49:37;6.03;;;1.42;;
47599;SDS011;33323;52.124;6.018;2023-03-14T13:55:17;5.00;;;0.85;;
47599;SDS011;33323;52.124;6.018;2023-03-14T13:57:49;5.70;;;1.65;;
47599;SDS011;33323;52.124;6.018;2023-03-14T14:00:22;4.53;;;0.70;;
47599;SDS011;33323;52.124;6.018;2023-03-14T14:02:56;11.70;;;1.10;;
47599;SDS011;33323;52.124;6.018;2023-03-14T14:05:26;5.97;;;0.77;;
47599;SDS011;33323;52.124;6.018;2023-03-14T14:07:55;3.55;;;0.85;;
47599;SDS011;33323;52.124;6.018;2023-03-14T14:10:22;2.83;;;0.60;;
47599;SDS011;33323;52.124;6.018;2023-03-14T14:12:54;3.75;;;0.90;;
47599;SDS011;33323;52.124;6.018;2023-03-14T14:15:27;3.80;;;0.63;;
47599;SDS011;33323;52.124;6.018;2023-03-14T14:18:00;6.45;;;0.82;;
47599;SDS011;33323;52.124;6.018;2023-03-14T14:20:32;5.43;;;0.80;;
47599;SDS011;33323;52.124;6.018;2023-03-14T14:23:05;5.53;;;1.35;;
47599;SDS011;33323;52.124;6.018;2023-03-14T14:25:52;3.60;;;0.80;;
47599;SDS011;33323;52.124;6.018;2023-03-14T14:31:05;7.03;;;1.45;;
47599;SDS011;33323;52.124;6.018;2023-03-14T14:36:38;1.65;;;0.55;;
47599;SDS011;33323;52.124;6.018;2023-03-14T14:39:14;3.15;;;1.67;;
47599;SDS011;33323;52.124;6.018;2023-03-14T14:41:48;4.05;;;0.90;;
47599;SDS011;33323;52.124;6.018;2023-03-14T14:44:35;4.20;;;0.82;;
47599;SDS011;33323;52.124;6.018;2023-03-14T14:47:03;5.18;;;1.48;;
47599;SDS011;33323;52.124;6.018;2023-03-14T14:49:31;12.27;;;1.13;;
47599;SDS011;33323;52.124;6.018;2023-03-14T14:52:00;4.97;;;0.77;;
47599;SDS011;33323;52.124;6.018;2023-03-14T14:57:24;4.47;;;0.88;;
47599;SDS011;33323;52.124;6.018;2023-03-14T15:00:05;8.77;;;1.10;;
47599;SDS011;33323;52.124;6.018;2023-03-14T15:02:47;8.13;;;0.80;;
47599;SDS011;33323;52.124;6.018;2023-03-14T15:05:24;1.38;;;0.50;;
47599;SDS011;33323;52.124;6.018;2023-03-14T15:07:53;4.30;;;0.65;;
47599;SDS011;33323;52.124;6.018;2023-03-14T15:10:21;8.43;;;1.23;;
47599;SDS011;33323;52.124;6.018;2023-03-14T15:12:51;3.63;;;1.38;;
47599;SDS011;33323;52.124;6.018;2023-03-14T15:15:19;4.78;;;1.05;;
47599;SDS011;33323;52.124;6.018;2023-03-14T15:17:46;3.10;;;1.05;;
47599;SDS011;33323;52.124;6.018;2023-03-14T15:20:15;6.65;;;1.00;;
47599;SDS011;33323;52.124;6.018;2023-03-14T15:22:44;6.47;;;0.90;;
47599;SDS011;33323;52.124;6.018;2023-03-14T15:25:12;8.02;;;0.82;;
47599;SDS011;33323;52.124;6.018;2023-03-14T15:27:59;3.00;;;0.55;;
47599;SDS011;33323;52.124;6.018;2023-03-14T15:30:26;7.78;;;0.82;;
47599;SDS011;33323;52.124;6.018;2023-03-14T15:32:54;4.15;;;0.40;;
47599;SDS011;33323;52.124;6.018;2023-03-14T15:35:21;3.88;;;0.73;;
47599;SDS011;33323;52.124;6.018;2023-03-14T15:37:48;2.92;;;0.82;;
47599;SDS011;33323;52.124;6.018;2023-03-14T15:40:15;9.88;;;2.10;;
47599;SDS011;33323;52.124;6.018;2023-03-14T15:42:42;4.25;;;0.60;;
47599;SDS011;33323;52.124;6.018;2023-03-14T15:45:09;4.35;;;1.63;;
47599;SDS011;33323;52.124;6.018;2023-03-14T15:47:37;4.07;;;1.00;;
47599;SDS011;33323;52.124;6.018;2023-03-14T15:50:04;3.72;;;1.05;;
47599;SDS011;33323;52.124;6.018;2023-03-14T15:52:31;6.88;;;0.77;;
47599;SDS011;33323;52.124;6.018;2023-03-14T15:54:58;1.80;;;0.60;;
47599;SDS011;33323;52.124;6.018;2023-03-14T15:57:26;4.97;;;0.55;;
47599;SDS011;33323;52.124;6.018;2023-03-14T15:59:53;6.82;;;0.80;;
47599;SDS011;33323;52.124;6.018;2023-03-14T16:02:20;4.88;;;0.77;;
47599;SDS011;33323;52.124;6.018;2023-03-14T16:04:47;4.40;;;0.70;;
47599;SDS011;33323;52.124;6.018;2023-03-14T16:07:14;5.35;;;0.70;;
47599;SDS011;33323;52.124;6.018;2023-03-14T16:09:41;5.22;;;0.63;;
47599;SDS011;33323;52.124;6.018;2023-03-14T16:12:08;7.95;;;1.30;;
47599;SDS011;33323;52.124;6.018;2023-03-14T16:14:35;4.35;;;0.60;;
47599;SDS011;33323;52.124;6.018;2023-03-14T16:17:02;5.65;;;0.88;;
47599;SDS011;33323;52.124;6.018;2023-03-14T16:19:37;6.18;;;0.77;;
47599;SDS011;33323;52.124;6.018;2023-03-14T16:22:03;4.78;;;0.80;;
47599;SDS011;33323;52.124;6.018;2023-03-14T16:24:31;11.75;;;1.00;;
47599;SDS011;33323;52.124;6.018;2023-03-14T16:26:58;7.07;;;1.20;;
47599;SDS011;33323;52.124;6.018;2023-03-14T16:29:25;9.15;;;1.17;;
47599;SDS011;33323;52.124;6.018;2023-03-14T16:31:52;9.50;;;1.25;;
47599;SDS011;33323;52.124;6.018;2023-03-14T16:34:19;5.85;;;1.05;;
47599;SDS011;33323;52.124;6.018;2023-03-14T16:36:46;3.92;;;0.75;;
47599;SDS011;33323;52.124;6.018;2023-03-14T16:39:13;12.88;;;1.45;;
47599;SDS011;33323;52.124;6.018;2023-03-14T16:41:40;5.28;;;1.85;;
47599;SDS011;33323;52.124;6.018;2023-03-14T16:44:07;6.75;;;0.88;;
47599;SDS011;33323;52.124;6.018;2023-03-14T16:46:34;5.13;;;1.33;;